sensor_id;sensor_type;location;lat;lon;timestamp;P1;durP1;ratioP1;P2;durP2;ratioP2
25980;SDS011;13772;52.996;9.124;2022-08-11T07:23:27;10.23;;;2.92;;
25980;SDS011;13772;52.996;9.124;2022-08-11T07:26:11;5.72;;;3.35;;
25980;SDS011;13772;52.996;9.124;2022-08-11T07:28:56;9.68;;;3.08;;
25980;SDS011;13772;52.996;9.124;2022-08-11T07:31:25;12.77;;;3.00;;
25980;SDS011;13772;52.996;9.124;2022-08-11T07:36:41;8.32;;;2.80;;
25980;SDS011;13772;52.996;9.124;2022-08-11T07:39:09;13.05;;;3.40;;
25980;SDS011;13772;52.996;9.124;2022-08-11T07:41:39;7.65;;;3.20;;
25980;SDS011;13772;52.996;9.124;2022-08-11T07:44:05;18.65;;;3.15;;
25980;SDS011;13772;52.996;9.124;2022-08-11T07:46:40;9.85;;;3.40;;
25980;SDS011;13772;52.996;9.124;2022-08-11T07:49:24;16.52;;;2.65;;
25980;SDS011;13772;52.996;9.124;2022-08-11T07:52:09;18.27;;;3.15;;
25980;SDS011;13772;52.996;9.124;2022-08-11T07:54:58;12.55;;;3.00;;
25980;SDS011;13772;52.996;9.124;2022-08-11T07:57:23;6.95;;;2.90;;
25980;SDS011;13772;52.996;9.124;2022-08-11T08:00:07;13.82;;;3.10;;
25980;SDS011;13772;52.996;9.124;2022-08-11T08:02:51;12.68;;;2.70;;
25980;SDS011;13772;52.996;9.124;2022-08-11T08:05:36;8.20;;;2.88;;
25980;SDS011;13772;52.996;9.124;2022-08-11T08:08:20;5.32;;;2.35;;
25980;SDS011;13772;52.996;9.124;2022-08-11T08:11:04;5.75;;;2.55;;
25980;SDS011;13772;52.996;9.124;2022-08-11T08:13:48;8.70;;;2.65;;
25980;SDS011;13772;52.996;9.124;2022-08-11T08:16:32;6.25;;;2.20;;
25980;SDS011;13772;52.996;9.124;2022-08-11T08:19:17;4.50;;;2.13;;
25980;SDS011;13772;52.996;9.124;2022-08-11T08:21:43;4.57;;;2.08;;
25980;SDS011;13772;52.996;9.124;2022-08-11T08:24:09;10.52;;;2.38;;
25980;SDS011;13772;52.996;9.124;2022-08-11T08:26:34;4.35;;;1.90;;
25980;SDS011;13772;52.996;9.124;2022-08-11T08:29:19;5.22;;;2.53;;
25980;SDS011;13772;52.996;9.124;2022-08-11T08:32:02;5.57;;;2.10;;
25980;SDS011;13772;52.996;9.124;2022-08-11T08:34:28;5.05;;;2.00;;
25980;SDS011;13772;52.996;9.124;2022-08-11T08:36:53;2.95;;;1.80;;
25980;SDS011;13772;52.996;9.124;2022-08-11T08:39:19;5.10;;;2.17;;
25980;SDS011;13772;52.996;9.124;2022-08-11T08:41:45;3.40;;;2.10;;
25980;SDS011;13772;52.996;9.124;2022-08-11T08:44:14;4.32;;;2.30;;
25980;SDS011;13772;52.996;9.124;2022-08-11T08:46:42;4.22;;;2.20;;
25980;SDS011;13772;52.996;9.124;2022-08-11T08:49:09;2.65;;;1.60;;
25980;SDS011;13772;52.996;9.124;2022-08-11T08:51:36;4.35;;;1.88;;
25980;SDS011;13772;52.996;9.124;2022-08-11T08:54:07;5.25;;;1.60;;
25980;SDS011;13772;52.996;9.124;2022-08-11T08:56:33;5.57;;;1.98;;
25980;SDS011;13772;52.996;9.124;2022-08-11T08:59:02;6.45;;;1.50;;
25980;SDS011;13772;52.996;9.124;2022-08-11T09:01:28;5.70;;;1.48;;
25980;SDS011;13772;52.996;9.124;2022-08-11T09:03:55;6.95;;;1.77;;
25980;SDS011;13772;52.996;9.124;2022-08-11T09:06:20;2.97;;;1.55;;
25980;SDS011;13772;52.996;9.124;2022-08-11T09:08:45;3.05;;;1.40;;
25980;SDS011;13772;52.996;9.124;2022-08-11T09:11:11;4.75;;;1.70;;
25980;SDS011;13772;52.996;9.124;2022-08-11T09:13:56;2.50;;;1.35;;
25980;SDS011;13772;52.996;9.124;2022-08-11T09:16:22;3.88;;;1.70;;
25980;SDS011;13772;52.996;9.124;2022-08-11T09:18:48;2.85;;;1.40;;
25980;SDS011;13772;52.996;9.124;2022-08-11T09:21:14;5.22;;;2.65;;
